createdAt,value
2022-12-15T00:00:17.262Z,-8.36
2022-12-15T00:01:17.252Z,-8.40
2022-12-15T00:02:17.327Z,-8.40
2022-12-15T00:03:17.363Z,-8.37
2022-12-15T00:04:17.214Z,-8.40
2022-12-15T00:05:17.212Z,-8.45
2022-12-15T00:06:17.262Z,-8.45
2022-12-15T00:07:17.194Z,-8.47
2022-12-15T00:08:17.163Z,-8.42
2022-12-15T00:09:20.414Z,-8.37
2022-12-15T00:10:17.155Z,-8.32
2022-12-15T00:11:17.141Z,-8.22
2022-12-15T00:12:17.125Z,-8.21
2022-12-15T00:13:17.119Z,-8.15
2022-12-15T00:14:18.066Z,-8.07
2022-12-15T00:15:17.102Z,-8.03
2022-12-15T00:16:17.195Z,-8.01
2022-12-15T00:17:17.078Z,-7.93
2022-12-15T00:18:17.043Z,-7.95
2022-12-15T00:19:17.043Z,-7.93
2022-12-15T00:20:17.013Z,-7.90
2022-12-15T00:21:17.008Z,-7.86
2022-12-15T00:22:17.022Z,-7.86
2022-12-15T00:23:17.051Z,-7.90
2022-12-15T00:24:16.973Z,-7.92
2022-12-15T00:25:16.955Z,-7.88
2022-12-15T00:26:16.953Z,-7.93
2022-12-15T00:27:16.947Z,-7.95
2022-12-15T00:28:16.915Z,-7.92
2022-12-15T00:29:16.922Z,-7.99
2022-12-15T00:30:16.897Z,-7.96
2022-12-15T00:31:16.978Z,-7.99
2022-12-15T00:32:16.885Z,-8.01
2022-12-15T00:33:16.874Z,-8.01
2022-12-15T00:34:16.861Z,-8.01
2022-12-15T00:35:16.834Z,-8.04
2022-12-15T00:36:16.825Z,-8.04
2022-12-15T00:37:16.824Z,-8.04
2022-12-15T00:38:16.796Z,-8.03
2022-12-15T00:39:16.807Z,-8.07
2022-12-15T00:40:16.786Z,-8.08
2022-12-15T00:41:16.787Z,-8.05
2022-12-15T00:42:16.795Z,-8.03
2022-12-15T00:43:16.744Z,-8.01
2022-12-15T00:44:20.589Z,-7.93
2022-12-15T00:45:16.731Z,-7.95
2022-12-15T00:46:16.770Z,-7.86
2022-12-15T00:47:16.722Z,-7.84
2022-12-15T00:48:16.948Z,-7.79
2022-12-15T00:49:16.665Z,-7.78
2022-12-15T00:50:16.657Z,-7.72
2022-12-15T00:51:16.651Z,-7.68
2022-12-15T00:52:16.636Z,-7.67
2022-12-15T00:53:16.618Z,-7.64
2022-12-15T00:54:18.283Z,-7.60
2022-12-15T00:55:16.600Z,-7.55
2022-12-15T00:56:16.586Z,-7.58
2022-12-15T00:57:16.575Z,-7.54
2022-12-15T00:58:16.561Z,-7.54
2022-12-15T00:59:16.546Z,-7.57
2022-12-15T01:00:16.527Z,-7.58
2022-12-15T01:01:16.642Z,-7.64
2022-12-15T01:02:16.612Z,-7.55
2022-12-15T01:03:16.831Z,-7.60
2022-12-15T01:04:16.557Z,-7.61
2022-12-15T01:05:16.465Z,-7.61
2022-12-15T01:06:16.466Z,-7.57
2022-12-15T01:07:16.456Z,-7.55
2022-12-15T01:08:16.452Z,-7.55
2022-12-15T01:09:16.417Z,-7.47
2022-12-15T01:10:16.422Z,-7.50
2022-12-15T01:11:16.396Z,-7.53
2022-12-15T01:12:16.398Z,-7.46
2022-12-15T01:13:16.376Z,-7.46
2022-12-15T01:14:16.364Z,-7.45
2022-12-15T01:15:16.358Z,-7.43
2022-12-15T01:16:16.406Z,-7.40
2022-12-15T01:17:16.354Z,-7.43
2022-12-15T01:18:16.324Z,-7.37
2022-12-15T01:19:16.744Z,-7.42
2022-12-15T01:20:16.285Z,-7.40
2022-12-15T01:21:16.270Z,-7.43
2022-12-15T01:22:16.279Z,-7.46
2022-12-15T01:23:16.248Z,-7.50
2022-12-15T01:24:16.241Z,-7.46
2022-12-15T01:25:16.220Z,-7.50
2022-12-15T01:26:16.208Z,-7.50
2022-12-15T01:27:16.207Z,-7.47
2022-12-15T01:28:16.196Z,-7.47
2022-12-15T01:29:16.177Z,-7.55
2022-12-15T01:30:16.190Z,-7.53
2022-12-15T01:31:16.215Z,-7.55
2022-12-15T01:32:16.150Z,-7.54
2022-12-15T01:33:16.129Z,-7.54
2022-12-15T01:34:16.119Z,-7.53
2022-12-15T01:35:16.131Z,-7.50
2022-12-15T01:36:16.092Z,-7.53
2022-12-15T01:37:16.089Z,-7.53
2022-12-15T01:38:16.069Z,-7.50
2022-12-15T01:39:16.060Z,-7.53
2022-12-15T01:40:16.058Z,-7.55
2022-12-15T01:41:16.028Z,-7.55
2022-12-15T01:42:16.036Z,-7.58
2022-12-15T01:43:16.016Z,-7.60
2022-12-15T01:44:15.999Z,-7.61
2022-12-15T01:45:15.979Z,-7.61
2022-12-15T01:46:16.106Z,-7.61
2022-12-15T01:47:16.040Z,-7.61
2022-12-15T01:48:15.943Z,-7.63
2022-12-15T01:49:15.929Z,-7.57
2022-12-15T01:50:15.918Z,-7.64
2022-12-15T01:51:15.907Z,-7.64
2022-12-15T01:52:15.906Z,-7.61
2022-12-15T01:53:15.878Z,-7.64
2022-12-15T01:54:15.888Z,-7.65
2022-12-15T01:55:15.860Z,-7.64
2022-12-15T01:56:15.851Z,-7.63
2022-12-15T01:57:15.856Z,-7.65
2022-12-15T01:58:15.828Z,-7.65
2022-12-15T01:59:15.812Z,-7.64
2022-12-15T02:00:16.480Z,-7.60
2022-12-15T02:01:15.862Z,-7.58
2022-12-15T02:02:15.918Z,-7.55
2022-12-15T02:03:15.831Z,-7.50
2022-12-15T02:04:15.754Z,-7.50
2022-12-15T02:05:15.740Z,-7.47
2022-12-15T02:06:15.731Z,-7.46
2022-12-15T02:07:15.961Z,-7.43
2022-12-15T02:08:15.732Z,-7.42
2022-12-15T02:09:15.682Z,-7.39
2022-12-15T02:10:15.689Z,-7.40
2022-12-15T02:11:15.662Z,-7.42
2022-12-15T02:12:15.661Z,-7.42
2022-12-15T02:13:15.631Z,-7.40
2022-12-15T02:14:15.645Z,-7.42
2022-12-15T02:15:15.614Z,-7.45
2022-12-15T02:16:15.629Z,-7.47
2022-12-15T02:17:15.637Z,-7.45
2022-12-15T02:18:15.580Z,-7.47
2022-12-15T02:19:15.561Z,-7.45
2022-12-15T02:20:15.550Z,-7.43
2022-12-15T02:21:15.540Z,-7.50
2022-12-15T02:22:15.549Z,-7.45
2022-12-15T02:23:15.519Z,-7.46
2022-12-15T02:24:15.511Z,-7.45
2022-12-15T02:25:15.491Z,-7.47
2022-12-15T02:26:15.501Z,-7.50
2022-12-15T02:27:15.483Z,-7.49
2022-12-15T02:28:15.461Z,-7.50
2022-12-15T02:29:15.443Z,-7.57
2022-12-15T02:30:15.436Z,-7.60
2022-12-15T02:31:15.473Z,-7.65
2022-12-15T02:32:15.423Z,-7.67
2022-12-15T02:33:15.388Z,-7.76
2022-12-15T02:34:15.381Z,-7.75
2022-12-15T02:35:15.363Z,-7.78
2022-12-15T02:36:15.593Z,-7.76
2022-12-15T02:37:15.365Z,-7.79
2022-12-15T02:38:15.347Z,-7.84
2022-12-15T02:39:15.332Z,-7.84
2022-12-15T02:40:15.552Z,-7.81
2022-12-15T02:41:15.294Z,-7.78
2022-12-15T02:42:15.299Z,-7.78
2022-12-15T02:43:15.741Z,-7.78
2022-12-15T02:44:15.276Z,-7.78
2022-12-15T02:45:15.264Z,-7.78
2022-12-15T02:46:15.287Z,-7.72
2022-12-15T02:47:15.244Z,-7.70
2022-12-15T02:48:15.462Z,-7.70
2022-12-15T02:49:15.202Z,-7.70
2022-12-15T02:50:15.194Z,-7.67
2022-12-15T02:51:15.185Z,-7.68
2022-12-15T02:52:15.174Z,-7.72
2022-12-15T02:53:15.155Z,-7.75
2022-12-15T02:54:15.145Z,-7.78
2022-12-15T02:55:15.133Z,-7.82
2022-12-15T02:56:15.115Z,-7.85
2022-12-15T02:57:15.115Z,-7.86
2022-12-15T02:58:15.094Z,-7.82
2022-12-15T02:59:15.083Z,-7.84
2022-12-15T03:00:15.304Z,-7.90
2022-12-15T03:01:15.104Z,-7.85
2022-12-15T03:02:15.643Z,-7.86
2022-12-15T03:03:15.073Z,-7.84
2022-12-15T03:04:15.024Z,-7.86
2022-12-15T03:05:15.018Z,-7.86
2022-12-15T03:06:14.996Z,-7.90
2022-12-15T03:07:15.007Z,-7.92
2022-12-15T03:08:14.965Z,-7.93
2022-12-15T03:09:14.969Z,-7.97
2022-12-15T03:10:14.945Z,-7.96
2022-12-15T03:11:14.946Z,-7.99
2022-12-15T03:12:14.934Z,-8.05
2022-12-15T03:13:14.915Z,-8.08
2022-12-15T03:14:14.897Z,-8.11
2022-12-15T03:15:14.907Z,-8.16
2022-12-15T03:16:14.900Z,-8.16
2022-12-15T03:17:14.883Z,-8.18
2022-12-15T03:18:14.853Z,-8.15
2022-12-15T03:19:15.094Z,-8.15
2022-12-15T03:20:14.826Z,-8.18
2022-12-15T03:21:14.818Z,-8.18
2022-12-15T03:22:14.815Z,-8.25
2022-12-15T03:23:14.793Z,-8.26
2022-12-15T03:24:14.778Z,-8.29
2022-12-15T03:25:14.785Z,-8.25
2022-12-15T03:26:14.763Z,-8.26
2022-12-15T03:27:14.756Z,-8.29
2022-12-15T03:28:14.727Z,-8.29
2022-12-15T03:29:14.718Z,-8.29
2022-12-15T03:30:14.717Z,-8.30
2022-12-15T03:31:14.747Z,-8.22
2022-12-15T03:32:14.782Z,-8.24
2022-12-15T03:33:14.676Z,-8.22
2022-12-15T03:34:14.657Z,-8.26
2022-12-15T03:35:14.666Z,-8.25
2022-12-15T03:36:14.637Z,-8.25
2022-12-15T03:37:14.639Z,-8.22
2022-12-15T03:38:14.607Z,-8.21
2022-12-15T03:39:14.619Z,-8.19
2022-12-15T03:40:14.851Z,-8.14
2022-12-15T03:41:14.591Z,-8.16
2022-12-15T03:42:14.567Z,-8.16
2022-12-15T03:43:14.557Z,-8.14
2022-12-15T03:44:14.801Z,-8.07
2022-12-15T03:45:14.528Z,-8.08
2022-12-15T03:46:14.556Z,-8.11
2022-12-15T03:47:14.519Z,-8.08
2022-12-15T03:48:14.484Z,-8.08
2022-12-15T03:49:14.485Z,-8.03
2022-12-15T03:50:14.459Z,-8.04
2022-12-15T03:51:14.544Z,-8.03
2022-12-15T03:52:14.454Z,-8.03
2022-12-15T03:53:14.448Z,-7.95
2022-12-15T03:54:14.422Z,-7.97
2022-12-15T03:55:14.422Z,-7.97
2022-12-15T03:56:14.392Z,-7.96
2022-12-15T03:57:14.401Z,-7.92
2022-12-15T03:58:14.368Z,-7.90
2022-12-15T03:59:14.377Z,-7.92
2022-12-15T04:00:14.341Z,-7.92
2022-12-15T04:01:14.405Z,-7.85
2022-12-15T04:02:14.504Z,-7.86
2022-12-15T04:03:14.380Z,-7.88
2022-12-15T04:04:14.291Z,-7.92
2022-12-15T04:05:14.299Z,-7.90
2022-12-15T04:06:14.280Z,-7.88
2022-12-15T04:07:14.289Z,-7.85
2022-12-15T04:08:14.249Z,-7.85
2022-12-15T04:09:14.250Z,-7.82
2022-12-15T04:10:14.230Z,-7.82
2022-12-15T04:11:14.239Z,-7.79
2022-12-15T04:12:14.200Z,-7.78
2022-12-15T04:13:14.201Z,-7.76
2022-12-15T04:14:14.169Z,-7.72
2022-12-15T04:15:14.159Z,-7.74
2022-12-15T04:16:19.494Z,-7.72
2022-12-15T04:17:15.226Z,-7.67
2022-12-15T04:18:14.139Z,-7.68
2022-12-15T04:19:14.117Z,-7.72
2022-12-15T04:20:14.101Z,-7.68
2022-12-15T04:21:14.102Z,-7.74
2022-12-15T04:22:17.943Z,-7.70
2022-12-15T04:23:14.090Z,-7.64
2022-12-15T04:24:14.059Z,-7.67
2022-12-15T04:25:14.045Z,-7.63
2022-12-15T04:26:14.030Z,-7.61
2022-12-15T04:27:14.095Z,-7.64
2022-12-15T04:28:14.009Z,-7.58
2022-12-15T04:29:13.989Z,-7.63
2022-12-15T04:30:13.980Z,-7.60
2022-12-15T04:31:14.207Z,-7.64
2022-12-15T04:32:13.971Z,-7.63
2022-12-15T04:33:13.948Z,-7.60
2022-12-15T04:34:13.942Z,-7.63
2022-12-15T04:35:13.937Z,-7.61
2022-12-15T04:36:13.910Z,-7.61
2022-12-15T04:37:13.919Z,-7.61
2022-12-15T04:38:13.887Z,-7.60
2022-12-15T04:39:13.880Z,-7.61
2022-12-15T04:40:13.860Z,-7.61
2022-12-15T04:41:13.852Z,-7.63
2022-12-15T04:42:13.861Z,-7.64
2022-12-15T04:43:13.829Z,-7.65
2022-12-15T04:44:13.812Z,-7.64
2022-12-15T04:45:20.158Z,-7.64
2022-12-15T04:46:14.931Z,-7.65
2022-12-15T04:47:13.809Z,-7.65
2022-12-15T04:48:13.775Z,-7.65
2022-12-15T04:49:13.751Z,-7.67
2022-12-15T04:50:13.747Z,-7.68
2022-12-15T04:51:13.731Z,-7.67
2022-12-15T04:52:13.714Z,-7.67
2022-12-15T04:53:13.700Z,-7.74
2022-12-15T04:54:13.681Z,-7.72
2022-12-15T04:55:13.693Z,-7.74
2022-12-15T04:56:18.152Z,-7.75
2022-12-15T04:57:14.668Z,-7.79
2022-12-15T04:58:13.652Z,-7.78
2022-12-15T04:59:13.659Z,-7.78
2022-12-15T05:00:13.626Z,-7.84
2022-12-15T05:01:13.669Z,-7.88
2022-12-15T05:02:13.725Z,-7.93
2022-12-15T05:03:18.141Z,-7.95
2022-12-15T05:04:14.657Z,-7.92
2022-12-15T05:05:13.562Z,-7.93
2022-12-15T05:06:13.542Z,-7.96
2022-12-15T05:07:13.549Z,-7.96
2022-12-15T05:08:13.539Z,-7.97
2022-12-15T05:09:13.746Z,-7.96
2022-12-15T05:10:15.354Z,-7.97
2022-12-15T05:11:13.493Z,-7.96
2022-12-15T05:12:13.481Z,-7.95
2022-12-15T05:13:13.463Z,-7.88
2022-12-15T05:14:13.454Z,-7.90
2022-12-15T05:15:13.432Z,-7.88
2022-12-15T05:16:13.480Z,-7.88
2022-12-15T05:17:13.468Z,-7.90
2022-12-15T05:18:13.404Z,-7.92
2022-12-15T05:19:13.670Z,-7.88
2022-12-15T05:20:13.372Z,-7.88
2022-12-15T05:21:13.363Z,-7.88
2022-12-15T05:22:13.356Z,-7.93
2022-12-15T05:23:13.582Z,-7.92
2022-12-15T05:24:13.337Z,-7.96
2022-12-15T05:25:13.312Z,-7.97
2022-12-15T05:26:13.310Z,-8.03
2022-12-15T05:27:13.332Z,-7.99
2022-12-15T05:28:13.288Z,-8.01
2022-12-15T05:29:13.262Z,-8.03
2022-12-15T05:30:13.253Z,-8.01
2022-12-15T05:31:13.439Z,-7.99
2022-12-15T05:32:13.276Z,-8.05
2022-12-15T05:33:13.223Z,-8.04
2022-12-15T05:34:13.214Z,-8.12
2022-12-15T05:35:13.203Z,-8.15
2022-12-15T05:36:13.197Z,-8.16
2022-12-15T05:37:13.183Z,-8.16
2022-12-15T05:38:14.116Z,-8.18
2022-12-15T05:39:13.157Z,-8.22
2022-12-15T05:40:13.141Z,-8.22
2022-12-15T05:41:13.121Z,-8.25
2022-12-15T05:42:13.120Z,-8.26
2022-12-15T05:43:13.103Z,-8.26
2022-12-15T05:44:13.089Z,-8.29
2022-12-15T05:45:13.098Z,-8.32
2022-12-15T05:46:13.112Z,-8.32
2022-12-15T05:47:13.057Z,-8.40
2022-12-15T05:48:13.044Z,-8.35
2022-12-15T05:49:13.025Z,-8.39
2022-12-15T05:50:13.012Z,-8.35
2022-12-15T05:51:13.803Z,-8.33
2022-12-15T05:52:13.006Z,-8.35
2022-12-15T05:53:12.974Z,-8.35
2022-12-15T05:54:12.970Z,-8.40
2022-12-15T05:55:12.958Z,-8.39
2022-12-15T05:56:12.947Z,-8.37
2022-12-15T05:57:12.934Z,-8.37
2022-12-15T05:58:12.924Z,-8.40
2022-12-15T05:59:12.921Z,-8.43
2022-12-15T06:00:12.895Z,-8.43
2022-12-15T06:01:12.884Z,-8.42
2022-12-15T06:02:13.068Z,-8.36
2022-12-15T06:03:13.002Z,-8.43
2022-12-15T06:04:12.998Z,-8.43
2022-12-15T06:05:12.864Z,-8.42
2022-12-15T06:06:12.829Z,-8.51
2022-12-15T06:07:12.816Z,-8.58
2022-12-15T06:08:12.796Z,-8.61
2022-12-15T06:09:12.784Z,-8.60
2022-12-15T06:10:12.771Z,-8.58
2022-12-15T06:11:12.765Z,-8.60
2022-12-15T06:12:12.753Z,-8.55
2022-12-15T06:13:12.731Z,-8.57
2022-12-15T06:14:12.734Z,-8.55
2022-12-15T06:15:12.717Z,-8.55
2022-12-15T06:16:12.792Z,-8.54
2022-12-15T06:17:12.705Z,-8.48
2022-12-15T06:18:12.676Z,-8.47
2022-12-15T06:19:12.676Z,-8.42
2022-12-15T06:20:12.661Z,-8.40
2022-12-15T06:21:12.646Z,-8.39
2022-12-15T06:22:12.941Z,-8.32
2022-12-15T06:23:12.616Z,-8.35
2022-12-15T06:24:12.615Z,-8.26
2022-12-15T06:25:12.596Z,-8.29
2022-12-15T06:26:12.587Z,-8.24
2022-12-15T06:27:12.594Z,-8.22
2022-12-15T06:28:12.565Z,-8.22
2022-12-15T06:29:12.544Z,-8.22
2022-12-15T06:30:12.527Z,-8.24
2022-12-15T06:31:12.584Z,-8.25
2022-12-15T06:32:12.740Z,-8.24
2022-12-15T06:33:12.497Z,-8.24
2022-12-15T06:34:12.484Z,-8.24
2022-12-15T06:35:12.474Z,-8.25
2022-12-15T06:36:12.457Z,-8.21
2022-12-15T06:37:12.863Z,-8.22
2022-12-15T06:38:12.444Z,-8.18
2022-12-15T06:39:12.428Z,-8.15
2022-12-15T06:40:12.429Z,-8.14
2022-12-15T06:41:12.403Z,-8.08
2022-12-15T06:42:12.691Z,-8.14
2022-12-15T06:43:12.374Z,-8.11
2022-12-15T06:44:12.374Z,-8.01
2022-12-15T06:45:12.358Z,-7.97
2022-12-15T06:46:12.387Z,-7.88
2022-12-15T06:47:12.409Z,-7.86
2022-12-15T06:48:12.340Z,-7.82
2022-12-15T06:49:12.305Z,-7.82
2022-12-15T06:50:12.297Z,-7.81
2022-12-15T06:51:16.857Z,-7.78
2022-12-15T06:52:13.290Z,-7.78
2022-12-15T06:53:12.270Z,-7.74
2022-12-15T06:54:12.252Z,-7.78
2022-12-15T06:55:12.227Z,-7.68
2022-12-15T06:56:12.350Z,-7.70
2022-12-15T06:57:12.207Z,-7.70
2022-12-15T06:58:12.201Z,-7.68
2022-12-15T06:59:12.177Z,-7.68
2022-12-15T07:00:12.178Z,-7.68
2022-12-15T07:01:12.158Z,-7.68
2022-12-15T07:02:12.312Z,-7.64
2022-12-15T07:03:12.294Z,-7.65
2022-12-15T07:04:12.434Z,-7.63
2022-12-15T07:05:12.118Z,-7.68
2022-12-15T07:06:12.099Z,-7.67
2022-12-15T07:07:12.088Z,-7.68
2022-12-15T07:08:12.079Z,-7.65
2022-12-15T07:09:12.053Z,-7.63
2022-12-15T07:10:12.048Z,-7.70
2022-12-15T07:11:12.048Z,-7.72
2022-12-15T07:12:12.029Z,-7.68
2022-12-15T07:13:12.042Z,-7.70
2022-12-15T07:14:11.996Z,-7.72
2022-12-15T07:15:12.019Z,-7.70
2022-12-15T07:16:12.355Z,-7.74
2022-12-15T07:17:11.970Z,-7.79
2022-12-15T07:18:11.950Z,-7.84
2022-12-15T07:19:11.939Z,-7.81
2022-12-15T07:20:11.919Z,-7.92
2022-12-15T07:21:11.919Z,-8.04
2022-12-15T07:22:11.918Z,-8.11
2022-12-15T07:23:11.890Z,-8.16
2022-12-15T07:24:11.878Z,-8.25
2022-12-15T07:25:11.859Z,-8.24
2022-12-15T07:26:11.985Z,-8.26
2022-12-15T07:27:11.851Z,-8.26
2022-12-15T07:28:11.827Z,-8.24
2022-12-15T07:29:11.852Z,-8.24
2022-12-15T07:30:11.800Z,-8.24
2022-12-15T07:31:11.826Z,-8.26
2022-12-15T07:32:11.787Z,-8.29
2022-12-15T07:33:11.810Z,-8.24
2022-12-15T07:34:11.778Z,-8.30
2022-12-15T07:35:11.762Z,-8.33
2022-12-15T07:36:11.777Z,-8.36
2022-12-15T07:37:11.741Z,-8.39
2022-12-15T07:38:11.720Z,-8.39
2022-12-15T07:39:12.731Z,-8.37
2022-12-15T07:40:11.699Z,-8.36
2022-12-15T07:41:11.672Z,-8.33
2022-12-15T07:42:11.671Z,-8.30
2022-12-15T07:43:11.641Z,-8.29
2022-12-15T07:44:11.637Z,-8.26
2022-12-15T07:45:11.619Z,-8.22
2022-12-15T07:46:11.641Z,-8.19
2022-12-15T07:47:11.610Z,-8.18
2022-12-15T07:48:11.591Z,-8.15
2022-12-15T07:49:11.631Z,-8.12
2022-12-15T07:50:11.558Z,-8.11
2022-12-15T07:51:19.016Z,-8.07
2022-12-15T07:52:12.552Z,-8.07
2022-12-15T07:53:11.521Z,-8.05
2022-12-15T07:54:11.524Z,-8.03
2022-12-15T07:55:11.514Z,-8.01
2022-12-15T07:56:11.491Z,-7.99
2022-12-15T07:57:11.481Z,-7.96
2022-12-15T07:58:11.471Z,-7.92
2022-12-15T07:59:12.420Z,-7.93
2022-12-15T08:00:11.651Z,-7.86
2022-12-15T08:01:11.501Z,-7.79
2022-12-15T08:02:11.633Z,-7.78
2022-12-15T08:03:11.512Z,-7.76
2022-12-15T08:04:11.391Z,-7.74
2022-12-15T08:05:11.402Z,-7.63
2022-12-15T08:06:11.424Z,-7.67
2022-12-15T08:07:11.358Z,-7.61
2022-12-15T08:08:15.341Z,-7.61
2022-12-15T08:09:11.648Z,-7.63
2022-12-15T08:10:11.540Z,-7.63
2022-12-15T08:11:11.303Z,-7.60
2022-12-15T08:12:12.295Z,-7.60
2022-12-15T08:13:11.284Z,-7.54
2022-12-15T08:14:16.931Z,-7.57
2022-12-15T08:15:12.259Z,-7.55
2022-12-15T08:16:11.291Z,-7.47
2022-12-15T08:17:11.242Z,-7.47
2022-12-15T08:18:11.231Z,-7.47
2022-12-15T08:19:11.205Z,-7.46
2022-12-15T08:20:11.202Z,-7.43
2022-12-15T08:21:11.181Z,-7.40
2022-12-15T08:22:11.185Z,-7.40
2022-12-15T08:23:11.154Z,-7.43
2022-12-15T08:24:11.152Z,-7.39
2022-12-15T08:25:11.134Z,-7.37
2022-12-15T08:26:11.164Z,-7.32
2022-12-15T08:27:11.114Z,-7.28
2022-12-15T08:28:11.124Z,-7.26
2022-12-15T08:29:49.650Z,-7.24
2022-12-15T08:30:12.074Z,-7.25
2022-12-15T08:31:11.062Z,-7.18
2022-12-15T08:32:11.134Z,-7.10
2022-12-15T08:33:11.034Z,-7.07
2022-12-15T08:34:11.023Z,-7.07
2022-12-15T08:35:31.742Z,-7.03
2022-12-15T08:36:12.015Z,-6.98
2022-12-15T08:37:10.987Z,-7.00
2022-12-15T08:38:10.986Z,-6.95
2022-12-15T08:39:10.965Z,-6.98
2022-12-15T08:40:10.949Z,-6.98
2022-12-15T08:41:10.935Z,-6.90
2022-12-15T08:42:10.944Z,-6.92
2022-12-15T08:43:10.925Z,-6.86
2022-12-15T08:44:10.902Z,-6.85
2022-12-15T08:45:10.886Z,-6.83
2022-12-15T08:46:10.929Z,-6.80
2022-12-15T08:47:10.875Z,-6.74
2022-12-15T08:48:10.854Z,-6.74
2022-12-15T08:49:10.835Z,-6.67
2022-12-15T08:50:10.834Z,-6.59
2022-12-15T08:51:10.819Z,-6.56
2022-12-15T08:52:11.767Z,-6.40
2022-12-15T08:53:32.412Z,-6.37
2022-12-15T08:54:11.789Z,-6.28
2022-12-15T08:55:11.183Z,-6.21
2022-12-15T08:56:10.755Z,-6.16
2022-12-15T08:57:10.746Z,-6.10
2022-12-15T08:58:10.728Z,-5.98
2022-12-15T08:59:10.777Z,-5.93
2022-12-15T09:00:10.706Z,-5.89
2022-12-15T09:01:10.780Z,-5.85
2022-12-15T09:02:10.761Z,-5.75
2022-12-15T09:03:10.666Z,-5.70
2022-12-15T09:04:10.795Z,-5.61
2022-12-15T09:05:10.638Z,-5.60
2022-12-15T09:06:10.636Z,-5.57
2022-12-15T09:07:10.627Z,-5.54
2022-12-15T09:08:10.603Z,-5.56
2022-12-15T09:09:10.589Z,-5.50
2022-12-15T09:10:10.578Z,-5.57
2022-12-15T09:11:10.571Z,-5.59
2022-12-15T09:12:10.567Z,-5.53
2022-12-15T09:13:10.537Z,-5.50
2022-12-15T09:14:10.529Z,-5.47
2022-12-15T09:15:10.518Z,-5.46
2022-12-15T09:16:11.351Z,-5.39
2022-12-15T09:17:10.584Z,-5.32
2022-12-15T09:18:10.488Z,-5.25
2022-12-15T09:19:10.475Z,-5.14
2022-12-15T09:20:12.251Z,-5.13
2022-12-15T09:21:10.456Z,-5.01
2022-12-15T09:22:10.445Z,-4.93
2022-12-15T09:23:10.435Z,-4.89
2022-12-15T09:24:10.408Z,-4.84
2022-12-15T09:25:10.400Z,-4.82
2022-12-15T09:26:10.380Z,-4.84
2022-12-15T09:27:10.387Z,-4.82
2022-12-15T09:28:10.361Z,-4.78
2022-12-15T09:29:10.357Z,-4.80
2022-12-15T09:30:10.340Z,-4.81
2022-12-15T09:31:10.417Z,-4.78
2022-12-15T09:32:14.130Z,-4.81
2022-12-15T09:33:10.298Z,-4.80
2022-12-15T09:34:10.285Z,-4.78
2022-12-15T09:35:10.281Z,-4.75
2022-12-15T09:36:10.259Z,-4.74
2022-12-15T09:37:10.283Z,-4.70
2022-12-15T09:38:10.249Z,-4.73
2022-12-15T09:39:10.223Z,-4.66
2022-12-15T09:40:10.199Z,-4.57
2022-12-15T09:41:10.210Z,-4.56
2022-12-15T09:42:10.190Z,-4.54
2022-12-15T09:43:33.570Z,-4.48
2022-12-15T09:44:11.152Z,-4.45
2022-12-15T09:45:10.162Z,-4.42
2022-12-15T09:46:10.187Z,-4.52
2022-12-15T09:47:10.169Z,-4.42
2022-12-15T09:48:10.100Z,-4.42
2022-12-15T09:49:10.099Z,-4.49
2022-12-15T09:50:10.083Z,-4.53
2022-12-15T09:51:10.071Z,-4.60
2022-12-15T09:52:11.420Z,-4.66
2022-12-15T09:53:36.716Z,-4.71
2022-12-15T09:54:11.033Z,-4.80
2022-12-15T09:55:10.083Z,-4.89
2022-12-15T09:56:10.009Z,-5.02
2022-12-15T09:57:10.002Z,-5.09
2022-12-15T09:58:11.231Z,-5.17
2022-12-15T09:59:10.035Z,-5.22
2022-12-15T10:00:09.956Z,-5.31
2022-12-15T10:01:09.949Z,-5.29
2022-12-15T10:02:10.127Z,-5.35
2022-12-15T10:03:10.070Z,-5.36
2022-12-15T10:04:09.966Z,-5.39
2022-12-15T10:05:09.914Z,-5.51
2022-12-15T10:07:10.889Z,-5.63
2022-12-15T10:08:09.863Z,-5.65
2022-12-15T10:09:09.844Z,-5.68
2022-12-15T10:10:09.835Z,-5.67
2022-12-15T10:11:09.820Z,-5.63
2022-12-15T10:12:09.822Z,-5.65
2022-12-15T10:13:09.803Z,-5.63
2022-12-15T10:14:09.779Z,-5.63
2022-12-15T10:15:09.774Z,-5.61
2022-12-15T10:16:09.818Z,-5.60
2022-12-15T10:17:09.753Z,-5.59
2022-12-15T10:18:09.734Z,-5.56
2022-12-15T10:19:09.723Z,-5.49
2022-12-15T10:20:09.714Z,-5.50
2022-12-15T10:21:09.694Z,-5.47
2022-12-15T10:22:09.694Z,-5.42
2022-12-15T10:23:09.707Z,-5.39
2022-12-15T10:24:09.664Z,-5.47
2022-12-15T10:25:10.821Z,-5.46
2022-12-15T10:26:09.645Z,-5.46
2022-12-15T10:27:09.637Z,-5.43
2022-12-15T10:28:09.644Z,-5.38
2022-12-15T10:29:09.646Z,-5.31
2022-12-15T10:30:09.895Z,-5.25
2022-12-15T10:31:09.595Z,-5.14
2022-12-15T10:32:09.570Z,-5.05
2022-12-15T10:33:09.562Z,-4.98
2022-12-15T10:34:09.554Z,-4.98
2022-12-15T10:35:09.519Z,-4.98
2022-12-15T10:36:09.506Z,-4.96
2022-12-15T10:37:09.512Z,-5.01
2022-12-15T10:38:09.485Z,-5.02
2022-12-15T10:39:12.850Z,-5.02
2022-12-15T10:40:10.455Z,-5.02
2022-12-15T10:41:09.449Z,-5.07
2022-12-15T10:42:09.451Z,-5.05
2022-12-15T10:43:09.420Z,-5.03
2022-12-15T10:44:09.412Z,-5.09
2022-12-15T10:45:09.396Z,-5.05
2022-12-15T10:46:09.499Z,-5.07
2022-12-15T10:47:09.377Z,-5.10
2022-12-15T10:48:09.357Z,-5.07
2022-12-15T10:49:09.345Z,-5.11
2022-12-15T10:50:09.336Z,-5.13
2022-12-15T10:51:09.326Z,-5.11
2022-12-15T10:52:09.315Z,-5.09
2022-12-15T10:53:09.296Z,-5.10
2022-12-15T10:54:09.286Z,-5.11
2022-12-15T10:55:09.272Z,-5.09
2022-12-15T10:56:09.251Z,-5.05
2022-12-15T10:57:09.375Z,-5.05
2022-12-15T10:58:09.227Z,-4.99
2022-12-15T10:59:09.218Z,-4.99
2022-12-15T11:00:09.207Z,-5.01
2022-12-15T11:01:09.298Z,-5.03
2022-12-15T11:02:09.243Z,-4.99
2022-12-15T11:03:09.347Z,-4.98
2022-12-15T11:04:09.212Z,-5.01
2022-12-15T11:05:09.144Z,-4.95
2022-12-15T11:06:09.127Z,-4.96
2022-12-15T11:07:09.138Z,-4.98
2022-12-15T11:08:12.196Z,-4.96
2022-12-15T11:09:09.107Z,-4.96
2022-12-15T11:10:09.089Z,-4.93
2022-12-15T11:11:09.074Z,-4.92
2022-12-15T11:13:10.049Z,-4.81
2022-12-15T11:14:09.024Z,-4.73
2022-12-15T11:15:09.030Z,-4.57
2022-12-15T11:16:08.998Z,-4.45
2022-12-15T11:17:08.997Z,-4.44
2022-12-15T11:18:08.988Z,-4.42
2022-12-15T11:19:09.007Z,-4.30
2022-12-15T11:20:08.968Z,-4.21
2022-12-15T11:21:08.978Z,-4.18
2022-12-15T11:22:08.938Z,-4.25
2022-12-15T11:23:08.938Z,-4.27
2022-12-15T11:24:08.917Z,-4.23
2022-12-15T11:25:08.901Z,-4.12
2022-12-15T11:26:08.959Z,-4.07
2022-12-15T11:27:08.879Z,-3.97
2022-12-15T11:28:08.866Z,-3.91
2022-12-15T11:29:08.849Z,-3.85
2022-12-15T11:30:08.830Z,-3.79
2022-12-15T11:31:08.829Z,-3.66
2022-12-15T11:32:08.819Z,-3.59
2022-12-15T11:33:08.804Z,-3.52
2022-12-15T11:34:08.780Z,-3.51
2022-12-15T11:35:08.779Z,-3.44
2022-12-15T11:36:08.759Z,-3.45
2022-12-15T11:37:08.750Z,-3.44
2022-12-15T11:38:08.730Z,-3.39
2022-12-15T11:39:08.745Z,-3.33
2022-12-15T11:40:08.700Z,-3.34
2022-12-15T11:41:08.699Z,-3.38
2022-12-15T11:42:08.679Z,-3.31
2022-12-15T11:43:08.670Z,-3.21
2022-12-15T11:44:08.640Z,-3.15
2022-12-15T11:45:08.650Z,-3.15
2022-12-15T11:46:08.629Z,-3.15
2022-12-15T11:47:08.626Z,-3.21
2022-12-15T11:48:08.591Z,-3.21
2022-12-15T11:49:08.591Z,-3.15
2022-12-15T11:50:08.569Z,-3.10
2022-12-15T11:51:08.563Z,-3.09
2022-12-15T11:52:08.550Z,-3.01
2022-12-15T11:53:09.487Z,-2.95
2022-12-15T11:54:08.559Z,-2.94
2022-12-15T11:55:08.511Z,-2.95
2022-12-15T11:56:08.492Z,-2.91
2022-12-15T11:57:08.497Z,-2.88
2022-12-15T11:58:08.460Z,-2.84
2022-12-15T11:59:08.463Z,-2.73
2022-12-15T12:00:08.442Z,-2.77
2022-12-15T12:01:08.443Z,-2.74
2022-12-15T12:02:08.447Z,-2.70
2022-12-15T12:03:08.468Z,-2.72
2022-12-15T12:04:08.397Z,-2.73
2022-12-15T12:05:08.394Z,-2.69
2022-12-15T12:06:08.382Z,-2.64
2022-12-15T12:07:08.362Z,-2.61
2022-12-15T12:08:08.344Z,-2.58
2022-12-15T12:09:08.343Z,-2.56
2022-12-15T12:10:08.332Z,-2.55
2022-12-15T12:11:08.422Z,-2.49
2022-12-15T12:12:08.332Z,-2.48
2022-12-15T12:13:08.612Z,-2.45
2022-12-15T12:14:11.749Z,-2.40
2022-12-15T12:15:08.303Z,-2.29
2022-12-15T12:16:08.304Z,-2.30
2022-12-15T12:17:08.243Z,-2.26
2022-12-15T12:18:08.233Z,-2.18
2022-12-15T12:19:08.259Z,-2.19
2022-12-15T12:20:11.532Z,-2.14
2022-12-15T12:21:08.182Z,-2.09
2022-12-15T12:22:09.140Z,-2.12
2022-12-15T12:23:08.160Z,-2.06
2022-12-15T12:24:08.143Z,-2.04
2022-12-15T12:25:08.128Z,-2.06
2022-12-15T12:26:08.116Z,-2.06
2022-12-15T12:27:08.113Z,-2.09
2022-12-15T12:28:08.083Z,-2.06
2022-12-15T12:29:08.075Z,-2.03
2022-12-15T12:30:08.061Z,-2.03
2022-12-15T12:31:08.051Z,-1.98
2022-12-15T12:32:08.041Z,-1.97
2022-12-15T12:33:08.025Z,-1.93
2022-12-15T12:34:08.006Z,-1.96
2022-12-15T12:35:31.279Z,-1.93
2022-12-15T12:36:08.994Z,-1.86
2022-12-15T12:37:07.974Z,-1.90
2022-12-15T12:38:07.954Z,-1.88
2022-12-15T12:39:07.961Z,-1.91
2022-12-15T12:40:07.926Z,-1.86
2022-12-15T12:41:07.915Z,-1.85
2022-12-15T12:42:07.914Z,-1.85
2022-12-15T12:43:13.513Z,-1.82
2022-12-15T12:44:08.887Z,-1.79
2022-12-15T12:45:07.876Z,-1.79
2022-12-15T12:46:07.857Z,-1.79
2022-12-15T12:47:07.860Z,-1.73
2022-12-15T12:48:07.836Z,-1.70
2022-12-15T12:49:07.823Z,-1.70
2022-12-15T12:50:07.816Z,-1.69
2022-12-15T12:51:07.807Z,-1.65
2022-12-15T12:52:08.105Z,-1.64
2022-12-15T12:53:08.168Z,-1.69
2022-12-15T12:54:08.012Z,-1.70